Time;durP1;ratioP1;P1;durP2;ratioP2;P2;SDS_P1;SDS_P2;PMS_P1;PMS_P2;Temp;Humidity;BMP_temperature;BMP_pressure;BME280_temperature;BME280_humidity;BME280_pressure;Samples;Min_cycle;Max_cycle;Signal;HPM_P1;HPM_P2
2024/02/11 00:01:09;;;;;;;13.90;5.50;;;6.20;99.90;;;;;;4929909;29;20130;-72
2024/02/11 00:03:37;;;;;;;12.05;5.80;;;6.20;99.90;;;;;;4929828;29;20038;-69
2024/02/11 00:06:08;;;;;;;14.77;6.18;;;6.20;99.90;;;;;;4929966;29;20083;-71
2024/02/11 00:08:36;;;;;;;8.88;4.93;;;6.20;99.90;;;;;;4929950;29;20499;-72
2024/02/11 00:11:01;;;;;;;11.52;5.40;;;6.20;99.90;;;;;;4929788;29;20036;-69
2024/02/11 00:13:29;;;;;;;10.57;5.70;;;6.20;99.90;;;;;;4929640;29;20042;-69
2024/02/11 00:15:54;;;;;;;13.60;6.40;;;6.20;99.90;;;;;;4930691;29;20028;-72
2024/02/11 00:18:22;;;;;;;16.20;5.97;;;6.10;99.90;;;;;;4931285;29;20046;-72
2024/02/11 00:20:47;;;;;;;13.38;5.95;;;6.10;99.90;;;;;;4932804;29;20488;-72
2024/02/11 00:23:13;;;;;;;10.27;5.73;;;6.10;99.90;;;;;;4933057;29;20035;-71
2024/02/11 00:25:39;;;;;;;14.37;6.90;;;6.10;99.90;;;;;;4933001;29;20064;-72
2024/02/11 00:28:07;;;;;;;15.57;6.15;;;6.10;99.90;;;;;;4944990;29;20062;-72
2024/02/11 00:30:37;;;;;;;14.77;6.78;;;6.20;99.90;;;;;;4952091;29;20043;-72
2024/02/11 00:33:04;;;;;;;13.65;6.10;;;6.10;99.90;;;;;;4952305;28;20602;-73
2024/02/11 00:35:29;;;;;;;11.95;6.75;;;6.20;99.90;;;;;;4952194;29;20477;-71
2024/02/11 00:37:56;;;;;;;13.47;6.60;;;6.20;99.90;;;;;;4951706;29;20082;-71
2024/02/11 00:40:21;;;;;;;;;;;6.20;99.90;;;;;;4951868;28;20027;-71
2024/02/11 00:42:47;;;;;;;12.40;5.85;;;6.20;99.90;;;;;;4939091;29;19911;-72
2024/02/11 00:45:13;;;;;;;12.27;5.83;;;6.20;99.90;;;;;;4932371;29;20403;-72
2024/02/11 00:47:43;;;;;;;14.77;7.03;;;6.20;99.90;;;;;;4932187;29;20283;-71
2024/02/11 00:50:13;;;;;;;13.82;5.72;;;6.20;99.90;;;;;;4931795;29;20051;-72
2024/02/11 00:52:42;;;;;;;14.57;5.80;;;6.20;99.90;;;;;;4932330;29;20515;-72
2024/02/11 00:55:09;;;;;;;12.35;6.18;;;6.20;99.90;;;;;;4932357;29;20050;-70
2024/02/11 00:57:36;;;;;;;15.05;6.13;;;6.20;99.90;;;;;;4932191;29;20050;-73
2024/02/11 01:00:05;;;;;;;13.55;6.28;;;6.20;99.90;;;;;;4932059;29;20523;-73
2024/02/11 01:02:31;;;;;;;12.80;6.75;;;6.20;99.90;;;;;;4943268;29;20053;-71
2024/02/11 01:04:56;;;;;;;13.77;7.07;;;6.20;99.90;;;;;;4913654;29;20531;-71
2024/02/11 01:07:22;;;;;;;17.30;9.17;;;6.10;99.90;;;;;;4913014;29;20040;-72
2024/02/11 01:09:48;;;;;;;22.30;9.03;;;6.20;99.90;;;;;;4915800;29;20519;-72
2024/02/11 01:12:13;;;;;;;18.03;7.57;;;6.20;99.90;;;;;;4913696;29;20032;-72
2024/02/11 01:14:39;;;;;;;12.63;5.97;;;6.20;99.90;;;;;;4913373;29;20043;-70
2024/02/11 01:17:04;;;;;;;14.98;6.32;;;6.20;99.90;;;;;;4913576;29;20054;-71
2024/02/11 01:19:30;;;;;;;14.30;6.13;;;6.10;99.90;;;;;;4913323;29;20028;-71
2024/02/11 01:21:55;;;;;;;12.63;6.27;;;6.10;99.90;;;;;;4913045;29;20032;-72
2024/02/11 01:24:21;;;;;;;15.33;6.87;;;6.10;99.90;;;;;;4912749;29;20055;-70
2024/02/11 01:26:48;;;;;;;15.60;6.57;;;6.00;99.90;;;;;;4912923;29;20039;-71
2024/02/11 01:29:15;;;;;;;16.55;6.72;;;6.00;99.90;;;;;;4911732;29;20518;-69
2024/02/11 01:31:41;;;;;;;15.82;7.55;;;6.00;99.90;;;;;;4913192;29;20107;-70
2024/02/11 01:34:06;;;;;;;14.63;6.17;;;6.00;99.90;;;;;;4913474;29;20211;-72
2024/02/11 01:36:32;;;;;;;10.47;5.87;;;5.90;99.90;;;;;;4912975;29;20032;-71
2024/02/11 01:38:57;;;;;;;16.07;6.83;;;6.00;99.90;;;;;;4912377;29;20398;-68
2024/02/11 01:41:23;;;;;;;13.27;6.63;;;6.10;99.90;;;;;;4912394;29;20033;-71
2024/02/11 01:43:49;;;;;;;11.50;6.63;;;6.10;99.90;;;;;;4912481;29;20047;-71
2024/02/11 01:46:14;;;;;;;16.83;7.23;;;6.10;99.90;;;;;;4912660;29;20119;-69
2024/02/11 01:48:40;;;;;;;11.67;5.87;;;6.00;99.90;;;;;;4913046;29;20481;-71
2024/02/11 01:51:07;;;;;;;8.70;5.60;;;6.00;99.90;;;;;;4912926;29;20512;-71
2024/02/11 01:53:36;;;;;;;;;;;5.90;99.90;;;;;;4913258;29;20531;-68
2024/02/11 01:56:03;;;;;;;14.57;5.97;;;5.80;99.90;;;;;;4913115;29;19918;-68
2024/02/11 01:58:31;;;;;;;11.93;5.60;;;5.90;99.90;;;;;;4913241;29;20503;-71
2024/02/11 02:00:56;;;;;;;16.55;6.90;;;6.00;99.90;;;;;;4913392;29;20095;-70
2024/02/11 02:03:24;;;;;;;13.33;6.70;;;6.00;99.90;;;;;;4930903;29;20071;-68
2024/02/11 02:05:52;;;;;;;17.58;5.75;;;6.00;99.90;;;;;;4931164;29;20031;-71
2024/02/11 02:08:17;;;;;;;10.88;5.45;;;5.90;99.90;;;;;;4930548;29;20032;-71
2024/02/11 02:10:44;;;;;;;10.70;6.17;;;5.90;99.90;;;;;;4930989;29;20054;-71
2024/02/11 02:13:10;;;;;;;13.48;5.97;;;5.90;99.90;;;;;;4930348;29;20038;-71
2024/02/11 02:15:36;;;;;;;11.37;5.83;;;6.00;99.90;;;;;;4930327;29;20023;-71
2024/02/11 02:18:01;;;;;;;10.40;5.60;;;6.00;99.90;;;;;;4931339;29;20040;-69
2024/02/11 02:20:27;;;;;;;10.77;5.43;;;6.00;99.90;;;;;;4931162;29;20522;-71
2024/02/11 02:22:53;;;;;;;9.63;5.60;;;6.00;99.90;;;;;;4931292;29;20032;-71
2024/02/11 02:25:19;;;;;;;11.63;5.90;;;6.10;99.90;;;;;;4931196;29;20551;-71
2024/02/11 02:27:46;;;;;;;14.93;6.30;;;6.10;99.90;;;;;;4939931;29;20043;-69
2024/02/11 02:30:12;;;;;;;;;;;6.20;99.90;;;;;;4951057;29;20267;-71
2024/02/11 02:32:37;;;;;;;10.13;5.65;;;6.20;99.90;;;;;;4950305;29;19956;-72
2024/02/11 02:35:03;;;;;;;12.83;6.87;;;6.10;99.90;;;;;;4950682;28;20054;-71
2024/02/11 02:37:30;;;;;;;16.15;6.50;;;6.00;99.90;;;;;;4950106;29;20043;-71
2024/02/11 02:39:55;;;;;;;13.63;6.80;;;6.00;99.90;;;;;;4930419;28;20401;-68
2024/02/11 02:42:21;;;;;;;13.43;6.40;;;6.00;99.90;;;;;;4941131;28;20734;-70
2024/02/11 02:44:47;;;;;;;15.15;7.45;;;6.00;99.90;;;;;;4939312;29;20069;-70
2024/02/11 02:47:13;;;;;;;13.05;7.55;;;6.10;99.90;;;;;;4940768;29;20459;-70
2024/02/11 02:49:42;;;;;;;13.73;7.10;;;6.20;99.90;;;;;;4930182;29;20036;-71
2024/02/11 02:52:08;;;;;;;14.73;6.65;;;6.10;99.90;;;;;;4937625;29;20547;-68
2024/02/11 02:54:34;;;;;;;13.83;6.87;;;6.00;99.90;;;;;;4937470;28;20110;-69
2024/02/11 02:57:00;;;;;;;16.75;6.90;;;6.00;99.90;;;;;;4941084;28;20035;-71
2024/02/11 02:59:26;;;;;;;13.57;7.05;;;5.90;99.90;;;;;;4931431;29;20577;-70
2024/02/11 03:02:01;;;;;;;14.07;6.82;;;5.80;99.90;;;;;;4943759;29;20065;-71
2024/02/11 03:04:28;;;;;;;17.30;7.38;;;5.90;99.90;;;;;;4938835;29;20455;-71
2024/02/11 03:06:56;;;;;;;13.05;6.75;;;5.90;99.90;;;;;;4938523;29;20519;-68
2024/02/11 03:09:22;;;;;;;13.70;6.72;;;5.90;99.90;;;;;;4931728;29;20035;-72
2024/02/11 03:11:49;;;;;;;16.90;6.65;;;6.00;99.90;;;;;;4940218;29;20023;-72
2024/02/11 03:14:15;;;;;;;16.27;7.18;;;5.90;99.90;;;;;;4937958;28;20145;-68
2024/02/11 03:16:46;;;;;;;17.73;7.93;;;5.90;99.90;;;;;;4931706;29;20031;-68
2024/02/11 03:19:13;;;;;;;12.70;7.45;;;5.90;99.90;;;;;;4940361;29;20464;-69
2024/02/11 03:21:40;;;;;;;18.90;8.00;;;6.00;99.90;;;;;;4939662;29;20020;-71
2024/02/11 03:24:07;;;;;;;21.83;7.32;;;6.00;99.90;;;;;;4938462;29;20094;-71
2024/02/11 03:26:33;;;;;;;15.90;9.00;;;6.00;99.90;;;;;;4938938;28;20143;-71
2024/02/11 03:29:00;;;;;;;16.38;8.32;;;6.00;99.90;;;;;;4940081;28;20743;-70
2024/02/11 03:31:27;;;;;;;18.55;8.73;;;5.80;99.90;;;;;;4939978;29;20122;-71
2024/02/11 03:33:53;;;;;;;20.00;10.55;;;5.80;99.90;;;;;;4939759;29;20522;-70
2024/02/11 03:36:18;;;;;;;13.93;8.70;;;5.80;99.90;;;;;;4937713;28;20031;-71
2024/02/11 03:38:44;;;;;;;18.10;8.80;;;5.80;99.90;;;;;;4932215;28;20043;-71
2024/02/11 03:41:12;;;;;;;14.87;8.70;;;5.80;99.90;;;;;;4955502;28;20039;-69
2024/02/11 03:43:38;;;;;;;26.58;10.60;;;5.80;99.90;;;;;;4939829;29;20298;-69
2024/02/11 03:46:04;;;;;;;16.30;9.10;;;5.80;99.90;;;;;;4939030;29;20074;-71
2024/02/11 03:48:30;;;;;;;19.40;9.40;;;5.80;99.90;;;;;;4937782;28;20391;-69
2024/02/11 03:50:55;;;;;;;16.05;9.82;;;5.80;99.90;;;;;;4947641;28;20040;-71
2024/02/11 03:53:21;;;;;;;15.23;9.07;;;5.80;99.90;;;;;;4940760;28;20054;-71
2024/02/11 03:55:46;;;;;;;17.40;9.77;;;5.80;99.90;;;;;;4942082;29;20488;-71
2024/02/11 03:58:14;;;;;;;17.95;9.70;;;5.90;99.90;;;;;;4941401;28;20040;-71
2024/02/11 04:00:40;;;;;;;17.95;9.25;;;5.80;99.90;;;;;;4943856;28;20396;-71
2024/02/11 04:03:07;;;;;;;19.65;9.00;;;5.90;99.90;;;;;;4944060;29;20031;-70
2024/02/11 04:05:33;;;;;;;21.05;11.43;;;5.90;99.90;;;;;;4941928;29;20046;-69
2024/02/11 04:08:01;;;;;;;15.40;9.30;;;5.90;99.90;;;;;;4941742;28;20723;-71
2024/02/11 04:10:28;;;;;;;16.23;9.20;;;5.90;99.90;;;;;;4936547;28;20480;-70
2024/02/11 04:12:54;;;;;;;18.30;9.15;;;5.90;99.90;;;;;;4940786;29;20166;-69
2024/02/11 04:15:23;;;;;;;16.17;9.15;;;5.80;99.90;;;;;;4945537;28;20027;-69
2024/02/11 04:17:53;;;;;;;19.10;9.35;;;5.90;99.90;;;;;;4942828;29;20562;-70
2024/02/11 04:20:27;;;;;;;17.20;9.50;;;5.80;99.90;;;;;;4941683;28;20035;-68
2024/02/11 04:23:00;;;;;;;15.70;9.07;;;5.80;99.90;;;;;;4941886;28;20089;-69
2024/02/11 04:25:34;;;;;;;20.23;9.75;;;5.80;99.90;;;;;;4941586;28;20110;-70
2024/02/11 04:28:07;;;;;;;19.75;9.95;;;5.60;99.90;;;;;;4941660;28;20499;-71
2024/02/11 04:30:34;;;;;;;18.10;9.45;;;5.90;99.90;;;;;;4938515;28;20404;-71
2024/02/11 04:33:03;;;;;;;18.23;9.18;;;5.80;99.90;;;;;;4941280;29;20118;-69
2024/02/11 04:35:30;;;;;;;22.77;10.25;;;5.80;99.90;;;;;;4941882;28;20036;-68
2024/02/11 04:37:55;;;;;;;;;;;5.90;99.90;;;;;;4941420;29;20040;-70
2024/02/11 04:40:22;;;;;;;17.25;8.27;;;5.90;99.90;;;;;;4937334;29;19914;-68
2024/02/11 04:43:07;;;;;;;21.27;9.40;;;5.90;99.90;;;;;;4938391;28;20428;-70
2024/02/11 04:45:33;;;;;;;22.00;11.07;;;5.90;99.90;;;;;;4940832;28;20035;-69
2024/02/11 04:48:00;;;;;;;19.20;9.33;;;6.00;99.90;;;;;;4943921;28;20129;-72
2024/02/11 04:50:30;;;;;;;17.70;9.80;;;6.00;99.90;;;;;;4942901;29;20027;-68
2024/02/11 04:52:58;;;;;;;23.27;9.23;;;6.00;99.90;;;;;;4941789;29;20046;-71
2024/02/11 04:55:38;;;;;;;19.77;9.77;;;6.00;99.90;;;;;;4938816;28;20142;-70
2024/02/11 04:58:07;;;;;;;19.85;9.88;;;6.00;99.90;;;;;;4950538;29;20049;-72
2024/02/11 05:00:35;;;;;;;23.92;10.13;;;6.00;99.90;;;;;;4943865;28;20031;-71
2024/02/11 05:03:06;;;;;;;17.52;9.77;;;5.90;99.90;;;;;;4936073;29;20063;-71
2024/02/11 05:05:33;;;;;;;19.25;9.85;;;6.00;99.90;;;;;;4945225;28;20130;-70
2024/02/11 05:08:00;;;;;;;18.20;9.63;;;6.00;99.90;;;;;;4940771;28;20043;-71
2024/02/11 05:10:27;;;;;;;24.58;11.60;;;6.00;99.90;;;;;;4934728;28;20028;-71
2024/02/11 05:12:53;;;;;;;21.08;10.70;;;6.10;99.90;;;;;;4942853;29;20035;-71
2024/02/11 05:15:22;;;;;;;17.90;10.70;;;6.10;99.90;;;;;;4942704;29;20067;-70
2024/02/11 05:17:54;;;;;;;21.80;9.77;;;6.10;99.90;;;;;;4942174;29;20051;-71
2024/02/11 05:20:25;;;;;;;20.73;11.30;;;6.10;99.90;;;;;;4941485;28;20035;-69
2024/02/11 05:22:51;;;;;;;24.30;10.98;;;6.10;99.90;;;;;;4941814;28;20090;-69
2024/02/11 05:25:20;;;;;;;20.63;10.52;;;6.10;99.90;;;;;;4941274;28;20039;-69
2024/02/11 05:27:49;;;;;;;15.40;10.00;;;6.10;99.90;;;;;;4941131;28;20035;-71
2024/02/11 05:30:15;;;;;;;20.25;10.75;;;6.00;99.90;;;;;;4941183;28;20070;-71
2024/02/11 05:32:40;;;;;;;19.83;10.37;;;6.00;99.90;;;;;;4942619;28;20066;-71
2024/02/11 05:35:09;;;;;;;17.47;10.57;;;6.00;99.90;;;;;;4942877;29;20797;-71
2024/02/11 05:37:35;;;;;;;21.27;10.10;;;6.10;99.90;;;;;;4940097;29;20503;-71
2024/02/11 05:40:01;;;;;;;18.83;9.65;;;6.10;99.90;;;;;;4936142;29;20040;-70
2024/02/11 05:42:26;;;;;;;18.33;9.53;;;6.10;99.90;;;;;;4940428;28;20104;-69
2024/02/11 05:44:52;;;;;;;23.53;8.33;;;6.10;99.90;;;;;;4941905;28;20674;-69
2024/02/11 05:47:18;;;;;;;14.15;7.60;;;6.00;99.90;;;;;;4942394;29;20027;-70
2024/02/11 05:49:44;;;;;;;12.67;7.17;;;6.00;99.90;;;;;;4941536;29;20045;-70
2024/02/11 05:52:09;;;;;;;16.60;8.00;;;5.90;99.90;;;;;;4955823;28;20039;-71
2024/02/11 05:54:35;;;;;;;17.93;8.27;;;5.80;99.90;;;;;;4941979;29;20680;-69
2024/02/11 05:57:01;;;;;;;18.33;8.13;;;5.80;99.90;;;;;;4941974;29;20526;-69
2024/02/11 05:59:26;;;;;;;19.83;7.70;;;5.80;99.90;;;;;;4932744;29;20027;-71
2024/02/11 06:01:52;;;;;;;16.57;8.03;;;5.80;99.90;;;;;;4944582;28;20035;-69
2024/02/11 06:04:17;;;;;;;19.97;8.20;;;5.80;99.90;;;;;;4944492;28;20031;-69
2024/02/11 06:06:43;;;;;;;18.37;9.80;;;5.80;99.90;;;;;;4939621;28;20093;-70
2024/02/11 06:09:13;;;;;;;18.63;8.47;;;5.90;99.90;;;;;;4939212;28;20070;-69
2024/02/11 06:11:39;;;;;;;21.05;8.30;;;5.90;99.90;;;;;;4940632;29;20032;-69
2024/02/11 06:14:05;;;;;;;15.55;8.13;;;5.90;99.90;;;;;;4941185;28;20082;-70
2024/02/11 06:16:31;;;;;;;16.90;9.20;;;6.00;99.90;;;;;;4940420;28;20031;-70
2024/02/11 06:18:57;;;;;;;28.85;11.25;;;6.00;99.90;;;;;;4941546;29;20054;-70
2024/02/11 06:21:22;;;;;;;27.77;13.07;;;6.00;99.90;;;;;;4941066;29;20039;-71
2024/02/11 06:23:48;;;;;;;20.53;9.47;;;6.10;99.90;;;;;;4937785;28;20423;-69
2024/02/11 06:26:14;;;;;;;22.63;10.00;;;5.90;99.90;;;;;;4941277;28;20066;-68
2024/02/11 06:28:40;;;;;;;15.18;8.73;;;5.90;99.90;;;;;;4939491;28;20051;-68
2024/02/11 06:31:06;;;;;;;18.03;9.27;;;5.80;99.90;;;;;;4939429;28;20163;-70
2024/02/11 06:33:31;;;;;;;17.10;9.17;;;5.90;99.90;;;;;;4937753;28;20268;-70
2024/02/11 06:35:57;;;;;;;24.57;10.40;;;6.00;99.90;;;;;;4939645;29;20138;-71
2024/02/11 06:38:23;;;;;;;22.03;9.57;;;6.00;99.90;;;;;;4931023;28;20047;-70
2024/02/11 06:40:48;;;;;;;14.20;8.75;;;5.90;99.90;;;;;;4941511;29;20035;-69
2024/02/11 06:43:15;;;;;;;17.53;9.03;;;5.90;99.90;;;;;;4944601;29;20126;-70
2024/02/11 06:45:45;;;;;;;18.65;10.07;;;5.90;99.90;;;;;;4937868;29;20299;-68
2024/02/11 06:48:12;;;;;;;19.48;8.55;;;5.90;99.90;;;;;;4939218;28;20035;-71
2024/02/11 06:50:38;;;;;;;26.67;8.73;;;5.90;99.90;;;;;;4938972;28;20094;-69
2024/02/11 06:53:06;;;;;;;21.92;7.93;;;6.00;99.90;;;;;;4954057;28;20040;-70
2024/02/11 06:55:31;;;;;;;16.30;8.32;;;6.00;99.90;;;;;;4940672;28;20479;-70
2024/02/11 06:57:57;;;;;;;17.70;8.93;;;6.10;99.90;;;;;;4941262;29;20039;-71
2024/02/11 07:00:24;;;;;;;18.87;8.57;;;6.10;99.90;;;;;;4940201;29;20066;-68
2024/02/11 07:02:54;;;;;;;15.57;7.95;;;6.20;99.90;;;;;;4940364;28;20036;-71
2024/02/11 07:05:20;;;;;;;17.70;8.10;;;6.20;99.90;;;;;;4938276;28;20077;-72
2024/02/11 07:07:46;;;;;;;19.38;9.18;;;6.20;99.90;;;;;;4940278;28;20035;-72
2024/02/11 07:10:13;;;;;;;26.55;10.50;;;6.20;99.90;;;;;;4934359;29;20044;-71
2024/02/11 07:12:39;;;;;;;31.55;10.20;;;6.20;99.90;;;;;;4936996;29;20062;-72
2024/02/11 07:15:06;;;;;;;20.85;11.02;;;6.10;99.90;;;;;;4935962;28;20048;-71
2024/02/11 07:17:32;;;;;;;19.50;9.60;;;6.10;99.90;;;;;;4939295;28;20489;-71
2024/02/11 07:19:58;;;;;;;;;;;6.10;99.90;;;;;;4954839;28;20028;-71
2024/02/11 07:22:25;;;;;;;20.05;9.68;;;6.20;99.90;;;;;;4940468;29;19914;-71
2024/02/11 07:24:52;;;;;;;20.38;10.90;;;6.20;99.90;;;;;;4939214;29;20117;-69
2024/02/11 07:27:19;;;;;;;18.83;9.32;;;6.20;99.90;;;;;;4938278;28;20035;-70
2024/02/11 07:29:44;;;;;;;20.50;10.65;;;6.30;99.90;;;;;;4940914;29;20039;-69
2024/02/11 07:32:10;;;;;;;21.13;10.47;;;6.30;99.90;;;;;;4941928;28;20624;-69
2024/02/11 07:34:39;;;;;;;25.55;11.00;;;6.40;99.90;;;;;;4942273;28;20463;-68
2024/02/11 07:37:05;;;;;;;20.35;11.55;;;6.40;99.90;;;;;;4942407;28;20428;-71
2024/02/11 07:39:31;;;;;;;21.00;11.18;;;6.40;99.90;;;;;;4941188;29;20036;-69
2024/02/11 07:41:57;;;;;;;18.20;11.80;;;6.40;99.90;;;;;;4937545;29;20039;-72
2024/02/11 07:44:24;;;;;;;24.67;11.05;;;6.40;99.90;;;;;;4940143;29;20042;-73
2024/02/11 07:46:50;;;;;;;28.25;12.30;;;6.40;99.90;;;;;;4943217;28;20027;-70
2024/02/11 07:49:15;;;;;;;20.25;12.18;;;6.40;99.90;;;;;;4940913;29;20575;-71
2024/02/11 07:51:45;;;;;;;19.10;10.53;;;6.50;99.90;;;;;;4933523;29;20114;-71
2024/02/11 07:54:11;;;;;;;21.88;10.35;;;6.50;99.90;;;;;;4935066;29;20019;-68
2024/02/11 07:56:38;;;;;;;23.88;10.55;;;6.50;99.90;;;;;;4937002;29;20070;-68
2024/02/11 07:59:04;;;;;;;;;;;6.50;99.90;;;;;;4936159;29;20106;-69
2024/02/11 08:01:33;;;;;;;22.38;11.05;;;6.50;99.90;;;;;;4936133;29;20297;-68
2024/02/11 08:03:59;;;;;;;18.27;10.30;;;6.50;99.90;;;;;;4938195;29;20039;-71
2024/02/11 08:06:25;;;;;;;23.52;12.00;;;6.50;99.90;;;;;;4940540;28;20782;-70
2024/02/11 08:08:51;;;;;;;17.37;10.40;;;6.50;99.90;;;;;;4950486;28;20081;-72
2024/02/11 08:11:17;;;;;;;37.28;12.85;;;6.60;99.90;;;;;;4943523;29;20090;-72
2024/02/11 08:13:43;;;;;;;19.25;10.32;;;6.70;99.90;;;;;;4940536;29;20428;-71
2024/02/11 08:16:11;;;;;;;17.50;9.18;;;6.80;99.90;;;;;;4942975;29;20038;-72
2024/02/11 08:18:42;;;;;;;22.75;9.65;;;6.90;99.90;;;;;;4956295;28;20515;-71
2024/02/11 08:21:09;;;;;;;20.80;8.95;;;7.00;99.90;;;;;;4941212;28;20506;-70
2024/02/11 08:23:34;;;;;;;;;;;7.20;99.90;;;;;;4941348;28;20106;-71
2024/02/11 08:26:01;;;;;;;18.58;8.68;;;7.30;99.90;;;;;;4940770;29;20005;-70
2024/02/11 08:28:26;;;;;;;;;;;7.40;99.90;;;;;;4942321;28;20024;-70
2024/02/11 08:30:53;;;;;;;18.83;9.85;;;7.40;99.90;;;;;;4943013;28;19937;-73
2024/02/11 08:33:20;;;;;;;16.85;9.77;;;7.70;99.90;;;;;;4943126;29;20812;-70
2024/02/11 08:35:47;;;;;;;19.48;9.85;;;7.80;99.90;;;;;;4939274;29;20537;-71
2024/02/11 08:38:13;;;;;;;16.83;9.55;;;8.30;99.90;;;;;;4940114;28;20520;-71
2024/02/11 08:40:39;;;;;;;17.83;9.68;;;8.20;99.90;;;;;;4942012;29;20452;-71
2024/02/11 08:43:05;;;;;;;20.85;10.23;;;7.90;99.90;;;;;;4934764;28;20050;-71
2024/02/11 08:45:31;;;;;;;19.85;10.25;;;7.90;99.90;;;;;;4944929;29;20027;-69
2024/02/11 08:47:57;;;;;;;17.02;9.43;;;8.00;99.90;;;;;;4945584;29;20039;-69
2024/02/11 08:50:25;;;;;;;19.80;9.27;;;8.60;99.90;;;;;;4941543;28;20075;-71
2024/02/11 08:52:50;;;;;;;18.15;9.02;;;8.90;99.90;;;;;;4930457;29;20085;-70
2024/02/11 08:55:17;;;;;;;20.57;8.80;;;8.90;99.90;;;;;;4942570;29;20027;-70
2024/02/11 08:57:47;;;;;;;22.65;9.68;;;8.50;99.90;;;;;;4941493;29;20166;-71
2024/02/11 09:00:14;;;;;;;12.05;7.47;;;8.10;99.90;;;;;;4940546;29;20035;-70
2024/02/11 09:02:42;;;;;;;16.55;8.63;;;8.00;99.90;;;;;;4940644;29;20134;-73
2024/02/11 09:05:08;;;;;;;15.13;8.68;;;8.10;99.90;;;;;;4942032;29;20483;-71
2024/02/11 09:07:36;;;;;;;18.05;9.07;;;8.20;99.90;;;;;;4942443;29;20058;-70
2024/02/11 09:10:02;;;;;;;25.00;10.95;;;8.30;99.90;;;;;;4933272;29;20116;-72
2024/02/11 09:12:29;;;;;;;22.25;9.80;;;8.20;99.90;;;;;;4942177;29;20035;-72
2024/02/11 09:14:54;;;;;;;16.00;8.88;;;8.20;99.90;;;;;;4941508;29;20023;-71
2024/02/11 09:17:20;;;;;;;16.87;8.27;;;8.20;99.90;;;;;;4941306;28;20035;-71
2024/02/11 09:19:46;;;;;;;15.43;8.48;;;8.30;99.90;;;;;;4942241;29;20032;-72
2024/02/11 09:22:12;;;;;;;16.43;8.57;;;8.30;99.90;;;;;;4941959;29;20238;-70
2024/02/11 09:24:41;;;;;;;21.50;8.97;;;8.30;99.90;;;;;;4942365;29;20043;-70
2024/02/11 09:27:07;;;;;;;21.00;8.35;;;8.10;99.90;;;;;;4940769;29;20391;-70
2024/02/11 09:29:34;;;;;;;16.02;8.63;;;8.30;99.90;;;;;;4940169;28;20051;-71
2024/02/11 09:31:59;;;;;;;28.05;9.35;;;8.30;99.90;;;;;;4940337;28;20043;-71
2024/02/11 09:34:25;;;;;;;16.87;8.47;;;8.40;99.90;;;;;;4940725;28;20039;-71
2024/02/11 09:36:53;;;;;;;21.05;8.52;;;8.60;99.90;;;;;;4940453;28;20640;-71
2024/02/11 09:39:18;;;;;;;17.83;8.07;;;8.70;99.90;;;;;;4941656;28;20118;-72
2024/02/11 09:41:45;;;;;;;16.83;9.07;;;8.70;99.90;;;;;;4929457;29;20861;-72
2024/02/11 09:44:12;;;;;;;;;;;8.60;99.90;;;;;;4933328;29;20035;-71
2024/02/11 09:46:40;;;;;;;19.88;9.25;;;8.60;99.90;;;;;;4941789;29;19980;-71
2024/02/11 09:49:15;;;;;;;22.33;8.95;;;8.70;99.90;;;;;;4937963;29;20039;-70
2024/02/11 09:51:44;;;;;;;23.88;9.18;;;8.80;99.90;;;;;;4939763;28;20115;-71
2024/02/11 09:54:10;;;;;;;15.73;9.18;;;8.70;99.90;;;;;;4930034;29;20058;-70
2024/02/11 09:56:36;;;;;;;15.88;8.93;;;8.80;99.90;;;;;;4938967;28;20032;-70
2024/02/11 09:59:02;;;;;;;26.17;10.83;;;8.80;99.90;;;;;;4939149;28;20044;-72
2024/02/11 10:01:28;;;;;;;21.80;10.52;;;8.70;99.90;;;;;;4938261;29;20859;-71
2024/02/11 10:03:57;;;;;;;17.77;10.35;;;8.80;99.90;;;;;;4944434;28;20035;-70
2024/02/11 10:06:37;;;;;;;22.45;9.90;;;9.30;99.90;;;;;;4940737;29;20407;-71
2024/02/11 10:09:12;;;;;;;16.73;10.05;;;10.10;99.90;;;;;;4933085;29;20122;-71
2024/02/11 10:11:39;;;;;;;19.30;10.52;;;10.20;99.90;;;;;;4935409;29;20024;-71
2024/02/11 10:14:11;;;;;;;16.35;9.90;;;10.40;99.90;;;;;;4940883;28;20046;-72
2024/02/11 10:16:37;;;;;;;18.13;9.30;;;10.50;99.90;;;;;;4933378;29;20380;-73
2024/02/11 10:19:04;;;;;;;;;;;10.30;99.90;;;;;;4942318;29;20081;-71
2024/02/11 10:21:31;;;;;;;20.60;9.52;;;10.20;99.90;;;;;;4939692;28;19911;-72
2024/02/11 10:23:56;;;;;;;17.52;8.75;;;10.10;99.90;;;;;;4941567;28;20040;-71
2024/02/11 10:26:22;;;;;;;18.87;9.30;;;10.10;99.90;;;;;;4942410;29;20074;-71
2024/02/11 10:28:48;;;;;;;19.67;8.73;;;10.00;99.90;;;;;;4941734;29;20298;-70
2024/02/11 10:31:14;;;;;;;19.25;9.55;;;10.10;99.90;;;;;;4935061;29;20068;-70
2024/02/11 10:33:41;;;;;;;25.80;9.65;;;10.20;99.90;;;;;;4938719;29;20035;-71
2024/02/11 10:36:07;;;;;;;19.30;9.70;;;10.20;99.90;;;;;;4940052;28;20078;-70
2024/02/11 10:38:34;;;;;;;16.58;9.48;;;10.00;99.90;;;;;;4935599;28;20042;-70
2024/02/11 10:41:03;;;;;;;16.85;9.65;;;10.00;99.90;;;;;;4941574;29;20504;-71
2024/02/11 10:43:30;;;;;;;15.73;8.98;;;10.10;99.90;;;;;;4928181;29;20091;-72
2024/02/11 10:45:56;;;;;;;15.70;8.18;;;10.20;99.90;;;;;;4930365;29;20031;-70
2024/02/11 10:48:22;;;;;;;19.05;8.70;;;10.20;99.90;;;;;;4941707;28;20107;-71
2024/02/11 10:51:11;;;;;;;17.63;8.90;;;10.30;99.90;;;;;;4935143;29;20289;-71
2024/02/11 10:53:40;;;;;;;20.17;9.35;;;10.50;99.90;;;;;;4935368;29;20508;-69
2024/02/11 10:56:10;;;;;;;22.83;9.20;;;10.70;99.90;;;;;;4934516;29;20063;-69
2024/02/11 10:58:46;;;;;;;30.65;9.88;;;10.70;99.90;;;;;;4935587;29;20127;-70
2024/02/11 11:01:15;;;;;;;24.98;10.13;;;10.50;99.90;;;;;;4940773;28;20639;-70
2024/02/11 11:03:45;;;;;;;21.65;10.10;;;10.70;99.90;;;;;;4933834;29;20047;-70
2024/02/11 11:06:13;;;;;;;24.95;11.73;;;11.00;99.90;;;;;;4929616;29;20031;-69
2024/02/11 11:08:42;;;;;;;22.65;11.10;;;11.00;99.90;;;;;;4945193;29;20075;-69
2024/02/11 11:11:08;;;;;;;23.83;10.40;;;10.90;99.90;;;;;;4939347;28;20117;-71
2024/02/11 11:13:34;;;;;;;27.27;11.35;;;11.00;99.90;;;;;;4939756;29;20515;-70
2024/02/11 11:16:08;;;;;;;17.33;9.43;;;10.90;99.90;;;;;;4933274;29;20036;-72
2024/02/11 11:18:37;;;;;;;18.73;9.32;;;11.30;99.90;;;;;;4938388;29;20512;-70
2024/02/11 11:21:07;;;;;;;19.38;8.60;;;11.50;99.90;;;;;;4936705;28;20039;-71
2024/02/11 11:23:37;;;;;;;13.55;6.68;;;11.90;99.90;;;;;;4938083;28;20043;-69
2024/02/11 11:26:10;;;;;;;19.52;7.18;;;12.10;99.90;;;;;;4938047;28;20032;-70
2024/02/11 11:28:42;;;;;;;12.73;6.47;;;11.90;99.90;;;;;;4938837;28;20503;-70
2024/02/11 11:31:07;;;;;;;14.23;4.97;;;11.90;99.90;;;;;;4936068;29;20488;-69
2024/02/11 11:33:34;;;;;;;12.20;5.40;;;12.00;99.90;;;;;;4939793;28;20031;-70
2024/02/11 11:36:01;;;;;;;;;;;12.20;99.90;;;;;;4940803;29;20023;-70
2024/02/11 11:38:27;;;;;;;13.98;4.50;;;12.30;99.90;;;;;;4937961;29;19926;-70
2024/02/11 11:40:56;;;;;;;9.20;3.77;;;12.40;99.90;;;;;;4940022;29;20451;-70
2024/02/11 11:43:24;;;;;;;9.10;2.65;;;12.50;99.90;;;;;;4929829;29;20042;-70
2024/02/11 11:46:04;;;;;;;8.88;3.10;;;12.50;98.30;;;;;;4939317;29;20048;-70
2024/02/11 11:48:35;;;;;;;2.78;1.60;;;12.50;97.40;;;;;;4937166;29;20047;-71
2024/02/11 11:51:03;;;;;;;5.95;2.58;;;12.40;99.90;;;;;;4938499;28;20036;-70
2024/02/11 11:53:29;;;;;;;4.30;1.73;;;12.10;99.90;;;;;;4939815;29;20094;-69
2024/02/11 11:55:59;;;;;;;5.40;2.50;;;12.00;99.90;;;;;;4930782;29;20496;-70
2024/02/11 11:58:26;;;;;;;3.90;2.13;;;11.90;99.90;;;;;;4937394;29;20499;-69
2024/02/11 12:01:00;;;;;;;4.72;2.30;;;12.00;99.90;;;;;;4933278;29;20046;-70
2024/02/11 12:03:29;;;;;;;5.70;3.00;;;12.30;98.10;;;;;;4930331;29;20043;-70
2024/02/11 12:05:56;;;;;;;2.15;1.70;;;12.40;99.90;;;;;;4931558;29;20062;-70
2024/02/11 12:08:26;;;;;;;3.13;1.40;;;12.40;99.90;;;;;;4938552;29;20035;-69
2024/02/11 12:10:58;;;;;;;4.28;2.83;;;12.50;99.10;;;;;;4934224;29;20032;-69
2024/02/11 12:13:26;;;;;;;5.45;3.42;;;12.40;99.90;;;;;;4934167;28;20072;-69
2024/02/11 12:15:54;;;;;;;7.45;3.20;;;12.20;99.90;;;;;;4944277;29;20488;-69
2024/02/11 12:18:20;;;;;;;8.07;3.72;;;12.30;99.90;;;;;;4943818;29;20050;-69
2024/02/11 12:20:47;;;;;;;20.08;6.45;;;12.30;99.90;;;;;;4941804;28;20062;-69
2024/02/11 12:23:17;;;;;;;13.70;6.43;;;12.30;99.90;;;;;;4934959;28;20036;-72
2024/02/11 12:25:44;;;;;;;9.95;4.85;;;12.20;99.90;;;;;;4935245;29;20119;-71
2024/02/11 12:28:10;;;;;;;9.05;4.72;;;11.90;99.90;;;;;;4943006;29;20941;-71
2024/02/11 12:30:40;;;;;;;11.80;4.10;;;12.00;99.90;;;;;;4938909;28;20086;-70
2024/02/11 12:33:06;;;;;;;7.72;3.15;;;12.10;99.90;;;;;;4938029;28;20393;-76
2024/02/11 12:35:34;;;;;;;6.70;4.10;;;12.00;99.90;;;;;;4945388;29;20040;-75
2024/02/11 12:38:02;;;;;;;8.75;4.03;;;12.00;99.90;;;;;;4936118;28;20102;-75
2024/02/11 12:40:29;;;;;;;10.45;4.30;;;11.90;99.90;;;;;;4941151;28;20147;-77
2024/02/11 12:42:59;;;;;;;4.90;3.13;;;12.00;99.90;;;;;;4938664;29;20023;-72
2024/02/11 12:45:26;;;;;;;7.40;3.13;;;11.90;99.90;;;;;;4938924;28;20032;-73
2024/02/11 12:47:52;;;;;;;6.25;2.75;;;12.00;99.90;;;;;;4944951;28;20636;-73